Time;durP1;ratioP1;P1;durP2;ratioP2;P2;SDS_P1;SDS_P2;PMS_P1;PMS_P2;Temp;Humidity;BMP_temperature;BMP_pressure;BME280_temperature;BME280_humidity;BME280_pressure;Samples;Min_cycle;Max_cycle;Signal;HPM_P1;HPM_P2
2022/11/26 00:04:57;;;;;;;28.02;9.82;;;;;;;2.48;100.00;102363.34;10550096;28;20038;-73
2022/11/26 00:09:58;;;;;;;23.42;9.10;;;;;;;2.42;100.00;102369.44;10567581;28;20048;-73
2022/11/26 00:15:13;;;;;;;30.13;12.50;;;;;;;2.40;100.00;102366.88;10534278;28;20043;-73
2022/11/26 00:20:14;;;;;;;29.20;14.15;;;;;;;1.99;100.00;102314.22;10550907;28;20051;-73
2022/11/26 00:25:19;;;;;;;37.25;13.02;;;;;;;2.02;100.00;102316.59;10536255;28;20050;-73
2022/11/26 00:30:22;;;;;;;35.15;14.15;;;;;;;2.31;100.00;102370.53;10549849;28;20040;-72
2022/11/26 00:35:23;;;;;;;41.65;13.00;;;;;;;2.27;100.00;102371.03;10567396;28;20031;-73
2022/11/26 00:40:27;;;;;;;36.13;12.60;;;;;;;2.20;100.00;102376.28;10547482;27;20077;-73
2022/11/26 00:45:28;;;;;;;26.33;10.65;;;;;;;2.20;100.00;102384.44;10549326;28;20032;-73
2022/11/26 00:50:41;;;;;;;25.13;10.60;;;;;;;2.25;100.00;102400.25;10518066;28;20031;-72
2022/11/26 00:55:46;;;;;;;24.15;10.05;;;;;;;2.12;100.00;102401.53;10545188;28;20042;-72
2022/11/26 01:00:47;;;;;;;27.48;10.98;;;;;;;2.20;100.00;102426.03;10564861;28;20058;-73
2022/11/26 01:05:51;;;;;;;32.22;10.85;;;;;;;2.14;100.00;102425.84;10583460;27;20032;-73
2022/11/26 01:10:52;;;;;;;33.95;11.38;;;;;;;2.09;100.00;102420.00;10564236;28;20047;-72
2022/11/26 01:15:56;;;;;;;38.60;11.65;;;;;;;2.14;100.00;102431.28;10564248;28;20039;-73
2022/11/26 01:20:56;;;;;;;24.58;10.25;;;;;;;2.08;100.00;102432.75;10547346;28;20031;-72
2022/11/26 01:25:57;;;;;;;31.02;11.10;;;;;;;2.05;100.00;102438.53;10564648;28;20031;-72
2022/11/26 01:30:57;;;;;;;38.42;12.07;;;;;;;1.98;100.00;102448.31;10581454;28;20032;-72
2022/11/26 01:35:58;;;;;;;27.92;11.45;;;;;;;2.00;100.00;102446.28;10583204;28;20032;-72
2022/11/26 01:41:05;;;;;;;39.03;13.75;;;;;;;2.06;100.00;102461.09;10528617;27;20047;-73
2022/11/26 01:46:18;;;;;;;36.40;14.48;;;;;;;2.01;100.00;102454.28;10547640;28;20057;-73
2022/11/26 01:51:25;;;;;;;33.17;12.48;;;;;;;1.87;100.00;102448.56;10581963;28;20048;-73
2022/11/26 01:56:33;;;;;;;27.45;11.02;;;;;;;1.83;100.00;102460.75;10564825;28;20046;-73
2022/11/26 02:01:34;;;;;;;25.65;11.48;;;;;;;1.67;100.00;102451.44;10565163;27;20035;-73
2022/11/26 02:06:35;;;;;;;25.10;10.63;;;;;;;1.64;100.00;102457.22;10579257;27;20044;-72
2022/11/26 02:11:35;;;;;;;21.17;9.52;;;;;;;1.48;100.00;102452.47;10581956;28;20088;-73
2022/11/26 02:16:44;;;;;;;26.57;10.57;;;;;;;1.50;100.00;102474.03;10546716;27;20118;-72
2022/11/26 02:21:47;;;;;;;28.85;10.07;;;;;;;1.35;100.00;102458.31;10581536;28;20031;-72
2022/11/26 02:27:24;;;;;;;24.98;10.93;;;;;;;1.38;100.00;102479.69;10580367;28;20526;-73
2022/11/26 02:32:46;;;;;;;23.27;10.10;;;;;;;1.36;100.00;102479.00;10579492;28;20576;-73
2022/11/26 02:37:49;;;;;;;27.05;12.23;;;;;;;1.28;100.00;102476.22;10580511;28;20031;-72
2022/11/26 02:42:49;;;;;;;22.52;11.85;;;;;;;1.15;100.00;102471.16;10563479;28;20035;-72
2022/11/26 02:47:52;;;;;;;27.15;11.32;;;;;;;1.12;100.00;102478.75;10580210;28;20039;-72
2022/11/26 02:52:53;;;;;;;27.08;13.20;;;;;;;1.15;100.00;102489.28;10563652;28;20541;-72
2022/11/26 02:57:54;;;;;;;27.77;14.13;;;;;;;1.11;100.00;102487.88;10563083;28;20107;-72
2022/11/26 03:03:00;;;;;;;29.10;13.87;;;;;;;0.95;100.00;102473.16;10543971;28;20035;-72
2022/11/26 03:08:01;;;;;;;38.60;18.33;;;;;;;0.97;100.00;102476.56;10579962;28;20047;-73
2022/11/26 03:13:02;;;;;;;45.63;21.23;;;;;;;1.11;100.00;102477.88;10563017;28;20125;-72
2022/11/26 03:18:02;;;;;;;44.40;19.33;;;;;;;1.15;100.00;102494.72;10579588;28;20035;-73
2022/11/26 03:23:03;;;;;;;53.08;24.38;;;;;;;1.05;100.00;102467.63;10579921;28;20099;-73
2022/11/26 03:28:03;;;;;;;55.03;23.80;;;;;;;0.90;100.00;102425.78;10577975;27;20076;-73
2022/11/26 03:33:04;;;;;;;45.17;22.20;;;;;;;1.26;100.00;102501.78;10581152;27;20038;-73
2022/11/26 03:38:04;;;;;;;60.72;28.30;;;;;;;1.33;100.00;102495.59;10580394;27;20027;-73
2022/11/26 03:43:05;;;;;;;57.08;26.55;;;;;;;1.41;100.00;102489.41;10586500;27;20085;-72
2022/11/26 03:48:05;;;;;;;70.25;32.08;;;;;;;1.54;100.00;102518.88;10587803;27;20039;-74
2022/11/26 03:53:06;;;;;;;78.72;32.90;;;;;;;1.68;100.00;102525.63;10588986;27;20108;-73
2022/11/26 03:58:06;;;;;;;86.13;36.22;;;;;;;1.91;100.00;102550.47;10581740;27;20035;-73
2022/11/26 04:03:07;;;;;;;83.03;38.10;;;;;;;2.09;100.00;102548.59;10583988;28;20376;-72
2022/11/26 04:08:07;;;;;;;84.93;38.22;;;;;;;2.33;100.00;102558.78;10582790;27;20522;-73
2022/11/26 04:13:07;;;;;;;86.50;38.22;;;;;;;2.44;100.00;102563.13;10585249;27;20028;-72
2022/11/26 04:18:08;;;;;;;72.43;35.80;;;;;;;2.45;100.00;102562.09;10585023;27;20031;-73
2022/11/26 04:23:08;;;;;;;79.00;36.75;;;;;;;2.32;100.00;102553.50;10616030;27;20053;-73
2022/11/26 04:28:09;;;;;;;81.47;37.38;;;;;;;2.23;100.00;102558.00;10626858;27;20027;-73
2022/11/26 04:33:09;;;;;;;82.55;36.53;;;;;;;2.35;100.00;102569.50;10567896;27;20036;-72
2022/11/26 04:38:10;;;;;;;81.28;38.53;;;;;;;2.36;100.00;102569.34;10543637;28;20044;-70
2022/11/26 04:43:10;;;;;;;103.55;39.20;;;;;;;2.26;100.00;102563.16;10542961;28;20044;-72
2022/11/26 04:48:11;;;;;;;76.90;33.70;;;;;;;2.18;100.00;102580.22;10525157;28;20071;-73
2022/11/26 04:53:11;;;;;;;89.60;36.75;;;;;;;2.15;100.00;102575.13;10543349;28;20043;-72
2022/11/26 04:58:12;;;;;;;81.20;37.53;;;;;;;2.34;100.00;102578.66;10565657;27;20059;-73
2022/11/26 05:03:12;;;;;;;102.00;37.42;;;;;;;2.28;100.00;102582.03;10570929;27;20438;-73
2022/11/26 05:08:13;;;;;;;83.53;34.88;;;;;;;2.09;100.00;102594.78;10540738;28;20083;-73
2022/11/26 05:13:13;;;;;;;88.18;36.95;;;;;;;2.08;100.00;102594.91;10541277;28;20044;-73
2022/11/26 05:18:15;;;;;;;85.87;35.33;;;;;;;2.07;100.00;102604.94;10557809;28;20071;-73
2022/11/26 05:23:15;;;;;;;76.80;35.75;;;;;;;1.92;100.00;102595.59;10557367;28;20044;-73
2022/11/26 05:28:16;;;;;;;79.50;31.73;;;;;;;1.85;100.00;102599.97;10559765;27;20035;-72
2022/11/26 05:33:16;;;;;;;76.78;32.75;;;;;;;1.67;100.00;102589.06;10582764;27;20133;-73
2022/11/26 05:38:17;;;;;;;86.93;35.60;;;;;;;1.37;100.00;102553.97;10582060;28;20036;-73
2022/11/26 05:43:17;;;;;;;80.90;35.28;;;;;;;1.67;100.00;102608.94;10583980;28;20040;-73
2022/11/26 05:48:18;;;;;;;78.75;36.33;;;;;;;1.75;100.00;102624.47;10565116;28;20040;-72
2022/11/26 05:53:18;;;;;;;92.88;36.00;;;;;;;1.84;100.00;102619.97;10564620;28;20031;-73
2022/11/26 05:58:19;;;;;;;95.50;37.88;;;;;;;1.64;100.00;102600.25;10562896;27;20040;-73
2022/11/26 06:03:19;;;;;;;85.65;37.65;;;;;;;1.75;100.00;102614.44;10581326;27;20519;-73
2022/11/26 06:08:19;;;;;;;88.07;38.75;;;;;;;1.70;100.00;102613.22;10580388;27;20506;-73
2022/11/26 06:13:20;;;;;;;90.63;39.85;;;;;;;1.63;100.00;102612.94;10581191;27;20051;-74
2022/11/26 06:18:20;;;;;;;100.37;41.17;;;;;;;1.71;100.00;102642.91;10583773;27;20419;-72
2022/11/26 06:23:21;;;;;;;86.45;40.28;;;;;;;1.56;100.00;102617.31;10580549;28;20039;-72
2022/11/26 06:28:21;;;;;;;84.60;38.80;;;;;;;1.78;100.00;102654.88;10546433;27;20031;-73
2022/11/26 06:33:22;;;;;;;96.13;40.78;;;;;;;1.70;100.00;102640.38;10579408;28;20036;-73
2022/11/26 06:38:22;;;;;;;106.85;42.55;;;;;;;1.39;100.00;102595.38;10563195;28;20123;-73
2022/11/26 06:43:23;;;;;;;107.18;44.50;;;;;;;1.78;100.00;102648.63;10581917;28;20046;-74
2022/11/26 06:48:24;;;;;;;128.52;46.55;;;;;;;1.96;100.00;102635.03;10580620;28;20333;-73
2022/11/26 06:53:24;;;;;;;120.30;45.65;;;;;;;2.28;100.00;102677.16;10579942;27;20038;-73
2022/11/26 06:58:25;;;;;;;156.95;47.42;;;;;;;2.41;100.00;102678.44;10543827;28;20032;-73
2022/11/26 07:03:25;;;;;;;144.13;47.15;;;;;;;2.48;100.00;102684.13;10579311;28;20145;-72
2022/11/26 07:08:26;;;;;;;136.60;44.30;;;;;;;1.89;100.00;102585.06;10579947;28;20050;-73
2022/11/26 07:13:26;;;;;;;169.88;45.88;;;;;;;2.59;100.00;102692.03;10584657;27;20061;-73
2022/11/26 07:18:27;;;;;;;166.23;45.20;;;;;;;2.54;100.00;102677.19;10588488;28;20051;-74
2022/11/26 07:23:27;;;;;;;187.18;46.88;;;;;;;2.54;100.00;102683.50;10587425;27;20081;-73
2022/11/26 07:28:28;;;;;;;154.57;41.80;;;;;;;2.76;100.00;102686.72;10588494;27;20036;-74
2022/11/26 07:33:28;;;;;;;474.92;76.75;;;;;;;2.83;100.00;102698.66;10588055;27;20092;-73
2022/11/26 07:38:29;;;;;;;367.67;59.97;;;;;;;2.87;100.00;102689.19;10570290;27;20036;-73
2022/11/26 07:43:29;;;;;;;139.05;42.60;;;;;;;3.08;100.00;102704.28;10587341;27;20047;-73
2022/11/26 07:48:30;;;;;;;187.18;47.03;;;;;;;3.16;100.00;102707.06;10570217;27;20035;-73
2022/11/26 07:53:31;;;;;;;310.58;55.33;;;;;;;3.26;100.00;102726.88;10585941;27;20036;-74
2022/11/26 07:58:32;;;;;;;306.83;56.78;;;;;;;3.28;100.00;102734.88;10567830;27;20099;-73
2022/11/26 08:03:35;;;;;;;181.85;46.75;;;;;;;3.29;100.00;102733.84;10586262;27;20044;-73
2022/11/26 08:08:36;;;;;;;224.95;49.20;;;;;;;3.38;100.00;102744.63;10586185;27;20032;-73
2022/11/26 08:13:36;;;;;;;187.65;45.45;;;;;;;3.47;100.00;102745.53;10552056;27;20036;-73
2022/11/26 08:18:36;;;;;;;215.80;46.78;;;;;;;3.51;100.00;102759.69;10585888;27;20031;-73
2022/11/26 08:23:37;;;;;;;169.00;42.70;;;;;;;3.58;100.00;102750.72;10584635;27;20059;-73
2022/11/26 08:28:38;;;;;;;256.48;52.40;;;;;;;3.68;100.00;102747.88;10583368;27;20476;-73
2022/11/26 08:33:38;;;;;;;184.00;47.45;;;;;;;3.76;100.00;102747.94;10578056;27;20046;-73
2022/11/26 08:38:39;;;;;;;146.23;45.33;;;;;;;3.81;100.00;102726.47;10567064;27;20036;-73
2022/11/26 08:43:39;;;;;;;183.45;46.88;;;;;;;4.00;100.00;102736.25;10584320;27;20480;-73
2022/11/26 08:48:40;;;;;;;182.73;49.58;;;;;;;4.12;100.00;102739.53;10586637;27;20035;-72
2022/11/26 08:53:40;;;;;;;170.15;49.72;;;;;;;4.19;100.00;102739.72;10584398;28;20120;-73
2022/11/26 08:58:41;;;;;;;187.35;49.50;;;;;;;4.32;100.00;102744.69;10563488;27;20036;-73
2022/11/26 09:03:42;;;;;;;211.32;54.28;;;;;;;4.30;100.00;102757.63;10582574;27;20058;-73
2022/11/26 09:09:16;;;;;;;165.60;48.60;;;;;;;4.47;100.00;102742.19;10582519;27;20519;-74
2022/11/26 09:14:09;;;;;;;181.77;52.42;;;;;;;4.54;100.00;102759.56;10552924;27;20036;-73
2022/11/26 09:19:11;;;;;;;216.43;49.35;;;;;;;4.58;100.00;102760.94;10583113;27;20028;-73
2022/11/26 09:24:11;;;;;;;209.77;52.88;;;;;;;4.68;100.00;102764.38;10565465;27;20069;-73
2022/11/26 09:29:13;;;;;;;180.60;50.15;;;;;;;4.75;100.00;102762.66;10565100;27;20040;-73
2022/11/26 09:34:14;;;;;;;161.07;49.25;;;;;;;4.84;100.00;102755.34;10578075;27;20051;-73
2022/11/26 09:39:14;;;;;;;165.52;47.67;;;;;;;5.00;100.00;102787.22;10563963;27;20051;-73
2022/11/26 09:45:06;;;;;;;197.18;54.30;;;;;;;5.12;100.00;102785.03;10575194;27;20047;-73
2022/11/26 09:50:12;;;;;;;145.95;48.58;;;;;;;5.20;100.00;102801.41;10518519;27;20039;-73
2022/11/26 09:55:23;;;;;;;135.35;46.88;;;;;;;5.11;100.00;102766.94;10518499;28;20567;-73
2022/11/26 10:00:45;;;;;;;135.25;43.38;;;;;;;5.30;100.00;102784.84;10503397;28;20040;-73
2022/11/26 10:06:07;;;;;;;147.77;45.50;;;;;;;5.50;100.00;102798.97;10540788;27;20115;-72
2022/11/26 10:11:31;;;;;;;149.35;46.88;;;;;;;5.60;100.00;102805.09;10543694;28;20039;-73
2022/11/26 10:16:37;;;;;;;124.70;45.97;;;;;;;5.41;100.00;102790.78;10547879;28;20054;-73
2022/11/26 10:21:42;;;;;;;134.68;46.67;;;;;;;5.44;100.00;102792.34;10540295;28;20411;-74
2022/11/26 10:26:43;;;;;;;115.28;44.72;;;;;;;5.44;100.00;102806.84;10541886;28;20039;-73
2022/11/26 10:31:45;;;;;;;125.82;47.25;;;;;;;5.54;100.00;102822.19;10524095;28;20032;-73
2022/11/26 10:36:46;;;;;;;122.80;45.97;;;;;;;5.61;100.00;102806.81;10545721;28;20039;-73
2022/11/26 10:41:46;;;;;;;122.38;47.83;;;;;;;5.79;100.00;102807.47;10581647;28;20043;-74
2022/11/26 10:46:47;;;;;;;139.27;52.10;;;;;;;5.82;100.00;102798.88;10578496;28;20104;-73
2022/11/26 10:51:47;;;;;;;148.02;49.45;;;;;;;5.91;100.00;102790.66;10547215;28;20057;-73
2022/11/26 10:56:52;;;;;;;119.57;46.92;;;;;;;5.92;100.00;102789.66;10534210;28;20042;-73
2022/11/26 11:01:53;;;;;;;140.18;49.60;;;;;;;6.00;100.00;102784.19;10543148;28;20040;-73
2022/11/26 11:06:53;;;;;;;154.95;51.83;;;;;;;6.06;100.00;102783.47;10547733;28;20055;-73
2022/11/26 11:12:09;;;;;;;143.43;50.85;;;;;;;6.28;100.00;102813.78;10529835;28;20111;-73
2022/11/26 11:17:35;;;;;;;157.45;53.85;;;;;;;6.29;100.00;102812.78;10565886;28;20036;-73
2022/11/26 11:22:36;;;;;;;156.90;50.77;;;;;;;6.24;100.00;102789.56;10550343;28;20116;-73
2022/11/26 11:27:38;;;;;;;162.15;49.17;;;;;;;6.43;100.00;102795.59;10558868;28;20039;-73
2022/11/26 11:32:39;;;;;;;153.93;54.50;;;;;;;6.42;100.00;102772.00;10529254;27;20036;-73
2022/11/26 11:37:50;;;;;;;161.00;54.03;;;;;;;6.61;100.00;102782.47;10551857;28;20467;-73
2022/11/26 11:42:58;;;;;;;160.40;53.83;;;;;;;6.63;100.00;102776.81;10568171;28;20043;-73
2022/11/26 11:48:34;;;;;;;161.57;56.63;;;;;;;6.78;100.00;102776.88;10569631;28;20106;-73
2022/11/26 11:53:46;;;;;;;159.77;56.47;;;;;;;6.94;100.00;102776.75;10562077;28;20031;-74
2022/11/26 11:58:56;;;;;;;151.30;51.55;;;;;;;6.97;100.00;102765.44;10585349;28;20117;-73
2022/11/26 12:04:15;;;;;;;151.57;51.75;;;;;;;7.16;100.00;102785.16;10585361;28;20040;-73
2022/11/26 12:09:27;;;;;;;159.85;51.70;;;;;;;7.06;100.00;102758.84;10578044;28;20071;-73
2022/11/26 12:14:36;;;;;;;137.20;47.38;;;;;;;7.18;100.00;102777.59;10550266;28;20577;-72
2022/11/26 12:19:57;;;;;;;138.70;51.38;;;;;;;7.30;100.00;102787.09;10568200;27;20044;-73
2022/11/26 12:25:03;;;;;;;147.18;50.10;;;;;;;7.31;100.00;102776.97;10586551;27;20550;-74
2022/11/26 12:30:25;;;;;;;137.80;48.38;;;;;;;7.40;100.00;102768.50;10543472;28;20080;-73
2022/11/26 12:35:32;;;;;;;122.70;45.80;;;;;;;7.37;100.00;102782.53;10561828;28;20092;-74
2022/11/26 12:40:44;;;;;;;119.78;44.65;;;;;;;7.33;100.00;102775.72;10582783;27;20036;-74
2022/11/26 12:45:54;;;;;;;120.00;45.60;;;;;;;7.41;100.00;102778.41;10547253;27;20103;-74
2022/11/26 12:51:18;;;;;;;119.07;44.70;;;;;;;7.32;100.00;102756.72;10566290;27;20032;-74
2022/11/26 12:56:32;;;;;;;125.55;44.47;;;;;;;7.40;100.00;102765.75;10559611;27;20054;-75
2022/11/26 13:01:33;;;;;;;106.55;43.67;;;;;;;7.34;100.00;102750.06;10542464;28;20036;-74
2022/11/26 13:06:53;;;;;;;111.95;41.97;;;;;;;7.36;100.00;102737.00;10527303;27;20035;-74
2022/11/26 13:12:12;;;;;;;123.40;44.08;;;;;;;7.50;100.00;102770.94;10567229;27;20040;-73
2022/11/26 13:17:21;;;;;;;112.97;42.53;;;;;;;7.40;100.00;102745.69;10582443;27;20063;-73
2022/11/26 13:22:40;;;;;;;112.22;40.45;;;;;;;7.50;100.00;102754.50;10583318;27;20044;-73
2022/11/26 13:28:05;;;;;;;104.10;41.42;;;;;;;7.48;100.00;102754.69;10584655;28;20047;-73
2022/11/26 13:33:39;;;;;;;109.20;40.80;;;;;;;7.44;100.00;102736.06;10581564;27;20115;-75
2022/11/26 13:38:42;;;;;;;112.63;40.85;;;;;;;7.39;100.00;102735.78;10581584;27;20108;-71
2022/11/26 13:43:52;;;;;;;118.78;41.38;;;;;;;7.32;100.00;102730.22;10584118;27;20036;-73
2022/11/26 13:49:03;;;;;;;111.00;40.20;;;;;;;7.25;100.00;102710.91;10584434;27;20567;-72
2022/11/26 13:54:06;;;;;;;109.78;42.65;;;;;;;7.27;100.00;102721.69;10581267;28;20384;-74
2022/11/26 13:59:16;;;;;;;108.18;40.45;;;;;;;7.19;100.00;102724.50;10582644;27;20039;-73
2022/11/26 14:04:22;;;;;;;98.57;38.95;;;;;;;7.14;100.00;102718.75;10548209;27;20063;-73
2022/11/26 14:10:01;;;;;;;110.70;41.10;;;;;;;7.06;100.00;102719.66;10578754;28;20491;-74
2022/11/26 14:15:02;;;;;;;991.63;93.68;;;;;;;7.01;100.00;102712.00;10512444;28;20031;-74
2022/11/26 14:20:03;;;;;;;116.22;39.22;;;;;;;6.93;100.00;102709.34;10562577;28;20032;-73
2022/11/26 14:25:05;;;;;;;105.85;39.58;;;;;;;7.00;100.00;102720.41;10561753;28;20042;-73
2022/11/26 14:30:05;;;;;;;101.82;41.85;;;;;;;6.98;100.00;102717.84;10544796;28;20089;-75
2022/11/26 14:35:19;;;;;;;114.93;41.42;;;;;;;6.64;100.00;102667.16;10580004;28;20043;-73
2022/11/26 14:40:26;;;;;;;116.28;43.25;;;;;;;6.82;100.00;102707.03;10529230;28;20461;-74
2022/11/26 14:45:26;;;;;;;115.68;39.65;;;;;;;6.81;100.00;102714.41;10562155;28;20057;-73
2022/11/26 14:50:28;;;;;;;101.90;39.85;;;;;;;6.76;100.00;102713.25;10579767;28;20145;-73
2022/11/26 14:55:29;;;;;;;106.55;38.85;;;;;;;6.72;100.00;102710.06;10545594;28;20035;-73
2022/11/26 15:00:30;;;;;;;111.20;38.88;;;;;;;6.71;100.00;102727.50;10562141;28;20035;-73
2022/11/26 15:05:32;;;;;;;114.05;38.55;;;;;;;6.69;100.00;102728.72;10545209;28;20048;-72
2022/11/26 15:10:37;;;;;;;116.32;41.70;;;;;;;6.60;100.00;102737.00;10544493;28;20115;-73
2022/11/26 15:15:53;;;;;;;103.60;36.70;;;;;;;6.62;100.00;102750.50;10575986;28;20108;-73
2022/11/26 15:20:54;;;;;;;102.85;37.90;;;;;;;6.13;100.00;102686.00;10546339;28;20048;-73
2022/11/26 15:25:54;;;;;;;104.80;37.40;;;;;;;6.36;100.00;102739.88;10528752;28;20039;-72
2022/11/26 15:30:59;;;;;;;107.90;36.45;;;;;;;6.34;100.00;102759.22;10561029;28;20077;-73
2022/11/26 15:36:04;;;;;;;84.55;32.95;;;;;;;6.15;100.00;102733.16;10533037;28;20043;-73
2022/11/26 15:41:06;;;;;;;101.32;36.88;;;;;;;6.11;100.00;102725.50;10551003;28;20047;-72
2022/11/26 15:46:15;;;;;;;90.93;36.85;;;;;;;6.14;100.00;102738.81;10568530;28;20380;-73
2022/11/26 15:51:26;;;;;;;114.53;39.15;;;;;;;6.06;100.00;102735.09;10568646;28;20048;-72
2022/11/26 15:56:29;;;;;;;97.07;36.97;;;;;;;6.02;100.00;102732.91;10568364;28;20051;-72
2022/11/26 16:01:32;;;;;;;100.50;37.00;;;;;;;5.99;100.00;102722.31;10568572;28;20094;-72
2022/11/26 16:06:33;;;;;;;89.30;35.15;;;;;;;6.04;100.00;102744.53;10567326;28;20046;-72
2022/11/26 16:11:35;;;;;;;101.65;40.63;;;;;;;5.90;100.00;102712.44;10584868;28;20036;-73
2022/11/26 16:16:36;;;;;;;82.32;35.45;;;;;;;6.02;100.00;102731.03;10550860;28;20032;-73
2022/11/26 16:21:36;;;;;;;92.28;38.83;;;;;;;5.95;100.00;102707.31;10550901;28;20039;-72
2022/11/26 16:26:56;;;;;;;101.60;38.08;;;;;;;5.96;100.00;102709.88;10551344;27;20031;-72
2022/11/26 16:31:56;;;;;;;92.53;37.05;;;;;;;6.04;100.00;102728.13;10573960;27;20042;-73
2022/11/26 16:37:01;;;;;;;103.10;39.92;;;;;;;5.89;100.00;102721.66;10579585;27;20038;-73
2022/11/26 16:42:02;;;;;;;103.18;39.90;;;;;;;5.98;100.00;102737.88;10532317;28;20065;-72
2022/11/26 16:47:02;;;;;;;90.75;38.25;;;;;;;5.84;100.00;102720.28;10580218;27;20081;-72
2022/11/26 16:52:04;;;;;;;99.22;38.50;;;;;;;5.92;100.00;102729.50;10547228;28;20035;-73
2022/11/26 16:57:06;;;;;;;91.25;37.70;;;;;;;5.78;100.00;102701.88;10549233;28;20036;-72
2022/11/26 17:02:15;;;;;;;94.28;36.85;;;;;;;5.86;100.00;102711.94;10545008;28;20082;-72
2022/11/26 17:07:23;;;;;;;88.03;36.60;;;;;;;5.72;100.00;102718.97;10547804;28;20036;-72
2022/11/26 17:12:24;;;;;;;100.28;38.55;;;;;;;5.74;100.00;102732.47;10548747;28;20039;-73
2022/11/26 17:17:27;;;;;;;92.88;39.05;;;;;;;5.55;100.00;102720.94;10565455;28;20032;-72
2022/11/26 17:22:27;;;;;;;119.18;38.75;;;;;;;5.47;100.00;102724.53;10520805;27;20047;-72
2022/11/26 17:27:28;;;;;;;99.47;37.88;;;;;;;5.34;100.00;102716.03;10563929;28;20363;-73
2022/11/26 17:32:28;;;;;;;94.40;36.85;;;;;;;5.22;100.00;102721.00;10580384;27;20032;-72
2022/11/26 17:37:29;;;;;;;85.35;35.10;;;;;;;5.12;100.00;102708.56;10577488;27;20078;-73
2022/11/26 17:42:29;;;;;;;88.30;36.58;;;;;;;5.08;100.00;102723.59;10578099;27;20066;-72
2022/11/26 17:47:30;;;;;;;106.35;37.22;;;;;;;5.09;100.00;102730.78;10564799;27;20061;-73
2022/11/26 17:52:30;;;;;;;98.30;36.03;;;;;;;5.09;100.00;102728.03;10595667;27;20050;-73
2022/11/26 17:57:31;;;;;;;83.63;35.75;;;;;;;4.99;100.00;102720.03;10582524;27;20027;-73
2022/11/26 18:02:31;;;;;;;87.78;38.50;;;;;;;5.00;100.00;102717.13;10563798;28;20503;-71
2022/11/26 18:07:32;;;;;;;92.88;37.22;;;;;;;5.10;100.00;102713.34;10582429;27;20282;-73
2022/11/26 18:12:32;;;;;;;75.35;31.80;;;;;;;5.02;100.00;102693.25;10563872;27;20122;-72
2022/11/26 18:17:33;;;;;;;98.72;35.90;;;;;;;5.24;100.00;102712.66;10611150;27;20038;-72
2022/11/26 18:22:33;;;;;;;98.53;35.10;;;;;;;5.22;100.00;102710.09;10600342;27;20077;-72
2022/11/26 18:27:34;;;;;;;89.05;33.80;;;;;;;5.22;100.00;102711.97;10571471;27;20032;-72
2022/11/26 18:32:36;;;;;;;70.85;30.58;;;;;;;5.24;100.00;102715.38;10576534;27;20026;-73
2022/11/26 18:37:37;;;;;;;82.93;32.50;;;;;;;5.26;100.00;102705.13;10579025;28;20036;-73
2022/11/26 18:42:37;;;;;;;77.55;29.67;;;;;;;5.09;100.00;102684.38;10580538;28;20036;-73
2022/11/26 18:47:38;;;;;;;74.93;30.40;;;;;;;5.02;100.00;102687.78;10563687;27;20040;-72
2022/11/26 18:52:39;;;;;;;89.03;30.58;;;;;;;4.93;100.00;102683.34;10591260;27;20044;-72
2022/11/26 18:57:39;;;;;;;90.25;33.53;;;;;;;4.90;100.00;102694.63;10578485;28;20099;-72
2022/11/26 19:02:40;;;;;;;83.53;31.70;;;;;;;4.36;100.00;102623.34;10558575;28;20039;-72
2022/11/26 19:07:40;;;;;;;85.78;29.73;;;;;;;4.68;100.00;102673.47;10544416;28;20036;-73
2022/11/26 19:12:41;;;;;;;80.75;29.42;;;;;;;4.57;100.00;102661.03;10535494;28;20107;-72
2022/11/26 19:17:41;;;;;;;94.50;29.15;;;;;;;4.66;100.00;102673.66;10585987;27;20050;-73
2022/11/26 19:22:43;;;;;;;84.70;28.98;;;;;;;4.69;100.00;102667.84;10589058;27;20067;-74
2022/11/26 19:27:44;;;;;;;71.95;28.48;;;;;;;4.75;100.00;102667.16;10588228;27;20453;-72
2022/11/26 19:32:44;;;;;;;78.57;28.30;;;;;;;4.75;100.00;102649.94;10583202;27;20024;-73
2022/11/26 19:37:45;;;;;;;72.93;29.50;;;;;;;4.74;100.00;102659.16;10588006;27;20521;-73
2022/11/26 19:42:46;;;;;;;70.20;25.88;;;;;;;4.74;100.00;102657.28;10587778;27;20063;-73
2022/11/26 19:47:46;;;;;;;71.40;26.45;;;;;;;4.70;100.00;102655.06;10615923;27;20046;-72
2022/11/26 19:52:47;;;;;;;71.07;25.17;;;;;;;4.67;100.00;102656.25;10602480;27;20028;-73
2022/11/26 19:57:47;;;;;;;66.57;24.58;;;;;;;4.56;100.00;102642.97;10586181;27;20036;-72
2022/11/26 20:02:47;;;;;;;72.25;29.05;;;;;;;4.52;100.00;102644.31;10582164;27;20055;-72
2022/11/26 20:07:48;;;;;;;76.65;25.17;;;;;;;4.36;100.00;102646.03;10584288;27;20031;-73
2022/11/26 20:12:49;;;;;;;69.25;25.65;;;;;;;4.23;100.00;102641.06;10584711;27;20126;-72
2022/11/26 20:17:49;;;;;;;75.50;25.77;;;;;;;4.26;100.00;102667.16;10589932;27;20555;-73
2022/11/26 20:22:50;;;;;;;77.05;26.05;;;;;;;4.27;100.00;102677.03;10618592;27;20394;-73
2022/11/26 20:27:50;;;;;;;73.90;28.40;;;;;;;4.30;100.00;102687.63;10588720;27;20039;-71
2022/11/26 20:32:51;;;;;;;82.53;26.15;;;;;;;4.17;100.00;102671.72;10510499;27;20066;-73
2022/11/26 20:37:51;;;;;;;68.95;24.98;;;;;;;4.33;100.00;102698.16;10546606;27;20099;-73
2022/11/26 20:42:52;;;;;;;72.05;25.33;;;;;;;4.28;100.00;102696.97;10520822;27;20048;-73
2022/11/26 20:47:52;;;;;;;65.28;25.80;;;;;;;4.34;100.00;102705.34;10536585;27;20040;-73
2022/11/26 20:52:53;;;;;;;62.75;24.23;;;;;;;4.38;100.00;102705.84;10523358;27;20032;-74
2022/11/26 20:57:53;;;;;;;64.18;23.42;;;;;;;4.46;100.00;102708.56;10523823;28;22403;-73
2022/11/26 21:02:54;;;;;;;65.72;24.40;;;;;;;4.56;100.00;102703.81;10558733;27;20059;-73
2022/11/26 21:07:54;;;;;;;63.35;24.80;;;;;;;4.69;100.00;102714.22;10509862;28;20044;-73
2022/11/26 21:12:55;;;;;;;58.60;22.10;;;;;;;4.82;100.00;102713.72;10494500;27;20035;-73
2022/11/26 21:17:55;;;;;;;51.88;20.88;;;;;;;4.88;100.00;102704.84;10509161;27;20115;-74
2022/11/26 21:22:56;;;;;;;56.10;19.70;;;;;;;5.01;100.00;102713.38;10482076;27;20044;-73
2022/11/26 21:27:56;;;;;;;57.42;20.77;;;;;;;4.90;100.00;102678.25;10507270;27;20047;-73
2022/11/26 21:32:57;;;;;;;48.08;19.92;;;;;;;5.05;100.00;102702.97;10520418;27;20625;-73
2022/11/26 21:37:58;;;;;;;62.75;21.02;;;;;;;5.02;100.00;102682.31;10520582;27;20071;-73
2022/11/26 21:42:58;;;;;;;57.22;20.55;;;;;;;4.98;100.00;102659.13;10509713;27;20065;-73
2022/11/26 21:47:59;;;;;;;52.40;20.52;;;;;;;4.95;100.00;102653.16;10530901;28;20040;-72
2022/11/26 21:53:00;;;;;;;69.88;20.13;;;;;;;5.02;100.00;102662.34;10515961;27;20137;-73
2022/11/26 21:58:00;;;;;;;53.45;19.88;;;;;;;5.03;100.00;102640.34;10501358;28;20051;-72
2022/11/26 22:03:01;;;;;;;63.50;20.67;;;;;;;4.94;100.00;102619.56;10552704;27;20042;-73
2022/11/26 22:08:01;;;;;;;44.97;19.00;;;;;;;4.87;100.00;102602.16;10585033;27;20478;-73
2022/11/26 22:13:02;;;;;;;63.05;20.08;;;;;;;4.91;100.00;102605.41;10600279;27;20077;-73
2022/11/26 22:18:02;;;;;;;61.47;21.40;;;;;;;4.90;100.00;102607.28;10570229;27;20074;-74
2022/11/26 22:23:03;;;;;;;53.92;20.95;;;;;;;4.82;100.00;102599.97;10585288;27;20061;-74
2022/11/26 22:28:03;;;;;;;72.18;20.83;;;;;;;4.84;100.00;102597.06;10584016;27;20031;-74
2022/11/26 22:33:04;;;;;;;57.53;21.13;;;;;;;4.79;100.00;102589.38;10584920;27;20027;-74
2022/11/26 22:38:04;;;;;;;52.33;20.67;;;;;;;4.67;100.00;102579.84;10620507;27;20031;-73
2022/11/26 22:43:05;;;;;;;52.65;19.75;;;;;;;4.70;100.00;102589.59;10585271;27;20054;-73